Time;durP1;ratioP1;P1;durP2;ratioP2;P2;SDS_P1;SDS_P2;PMS_P1;PMS_P2;Temp;Humidity;BMP_temperature;BMP_pressure;BME280_temperature;BME280_humidity;BME280_pressure;Samples;Min_cycle;Max_cycle;Signal;HPM_P1;HPM_P2
2023/04/09 00:01:09;;;;;;;0.30;0.30;;;9.60;99.90;;;;;;5014168;28;20178;-65
2023/04/09 00:03:36;;;;;;;1.75;1.35;;;9.50;99.90;;;;;;5010902;28;20056;-65
2023/04/09 00:06:02;;;;;;;3.60;1.55;;;9.60;99.90;;;;;;5012124;28;20171;-65
2023/04/09 00:08:28;;;;;;;2.45;2.25;;;9.60;99.90;;;;;;5011663;28;20188;-65
2023/04/09 00:10:54;;;;;;;3.20;2.47;;;9.50;99.90;;;;;;5012310;28;20061;-65
2023/04/09 00:13:20;;;;;;;0.85;0.85;;;9.60;99.90;;;;;;5017769;28;20168;-65
2023/04/09 00:15:46;;;;;;;3.22;1.55;;;9.60;99.90;;;;;;5015728;28;20124;-65
2023/04/09 00:18:12;;;;;;;4.15;3.08;;;9.50;99.90;;;;;;5014817;28;21822;-65
2023/04/09 00:20:38;;;;;;;1.27;1.27;;;9.50;99.90;;;;;;5014999;28;20038;-65
2023/04/09 00:23:04;;;;;;;1.50;1.02;;;9.60;99.90;;;;;;5016962;28;20034;-65
2023/04/09 00:25:29;;;;;;;1.88;0.75;;;9.60;99.90;;;;;;5017996;28;20046;-65
2023/04/09 00:27:55;;;;;;;1.58;1.48;;;9.60;99.90;;;;;;5027216;28;20036;-65
2023/04/09 00:30:21;;;;;;;2.17;0.95;;;9.60;99.90;;;;;;5019159;28;20054;-65
2023/04/09 00:32:47;;;;;;;2.97;2.78;;;9.60;99.90;;;;;;5018772;28;20057;-65
2023/04/09 00:35:15;;;;;;;0.63;0.63;;;9.60;99.90;;;;;;5010435;28;20046;-65
2023/04/09 00:37:40;;;;;;;8.38;2.10;;;9.60;99.90;;;;;;5014475;28;20061;-65
2023/04/09 00:40:07;;;;;;;1.63;1.55;;;9.60;99.90;;;;;;5011670;28;20038;-65
2023/04/09 00:42:36;;;;;;;5.35;1.48;;;9.60;99.90;;;;;;5009495;28;20227;-65
2023/04/09 00:45:03;;;;;;;1.20;1.13;;;9.60;99.90;;;;;;5018870;28;20497;-64
2023/04/09 00:47:29;;;;;;;1.48;1.38;;;9.60;99.90;;;;;;5015991;28;20049;-64
2023/04/09 00:49:55;;;;;;;4.22;2.53;;;9.60;99.90;;;;;;5018709;28;20060;-64
2023/04/09 00:52:23;;;;;;;3.45;1.23;;;9.60;99.90;;;;;;5025669;28;20493;-64
2023/04/09 00:54:50;;;;;;;1.58;1.42;;;9.60;99.90;;;;;;5013741;28;20081;-64
2023/04/09 00:57:16;;;;;;;0.77;0.77;;;9.70;99.90;;;;;;5009045;28;20049;-64
2023/04/09 00:59:45;;;;;;;1.15;1.13;;;9.60;99.90;;;;;;5017030;28;20538;-64
2023/04/09 01:02:11;;;;;;;1.08;1.08;;;9.60;99.90;;;;;;5021758;28;20145;-64
2023/04/09 01:04:39;;;;;;;3.13;2.70;;;9.60;99.90;;;;;;5008951;28;20124;-64
2023/04/09 01:07:10;;;;;;;1.25;1.15;;;9.70;99.90;;;;;;5010024;28;20457;-64
2023/04/09 01:09:41;;;;;;;5.97;3.03;;;9.60;99.90;;;;;;5009569;28;20045;-64
2023/04/09 01:12:21;;;;;;;4.38;2.50;;;9.60;99.90;;;;;;5022197;28;20049;-64
2023/04/09 01:14:57;;;;;;;0.80;0.80;;;9.60;99.90;;;;;;5009460;28;20057;-64
2023/04/09 01:17:34;;;;;;;7.13;3.78;;;9.60;99.90;;;;;;5018023;28;20045;-64
2023/04/09 01:20:10;;;;;;;1.88;1.75;;;9.60;99.90;;;;;;5010029;28;20045;-64
2023/04/09 01:23:12;;;;;;;2.13;2.03;;;9.60;99.90;;;;;;5009227;28;20072;-64
2023/04/09 01:25:53;;;;;;;1.67;1.58;;;9.70;99.90;;;;;;5009566;28;20394;-64
2023/04/09 01:28:26;;;;;;;0.80;0.80;;;9.60;99.90;;;;;;5010525;28;20111;-64
2023/04/09 01:30:59;;;;;;;1.15;1.15;;;9.70;99.90;;;;;;5018373;28;20062;-64
2023/04/09 01:33:26;;;;;;;1.17;1.17;;;9.70;99.90;;;;;;5011797;28;20077;-64
2023/04/09 01:35:53;;;;;;;1.70;1.60;;;9.60;99.90;;;;;;5025117;28;20057;-64
2023/04/09 01:38:20;;;;;;;0.15;0.15;;;9.60;99.90;;;;;;5007531;28;20123;-64
2023/04/09 01:40:48;;;;;;;0.35;0.35;;;9.70;99.90;;;;;;5011009;28;20041;-64
2023/04/09 01:43:14;;;;;;;0.85;0.85;;;9.60;99.90;;;;;;5009895;28;20124;-64
2023/04/09 01:45:40;;;;;;;0.82;0.82;;;9.70;99.90;;;;;;5008328;28;20046;-64
2023/04/09 01:48:07;;;;;;;3.25;1.85;;;9.70;99.90;;;;;;5015621;28;20144;-64
2023/04/09 01:50:32;;;;;;;1.13;1.10;;;9.70;99.90;;;;;;5019604;28;20069;-64
2023/04/09 01:53:00;;;;;;;5.03;3.13;;;9.60;99.90;;;;;;5013615;28;20050;-64
2023/04/09 01:55:26;;;;;;;2.72;2.50;;;9.60;99.90;;;;;;5012151;28;20073;-64
2023/04/09 01:57:52;;;;;;;1.38;1.27;;;9.60;99.90;;;;;;5015288;28;20089;-64
2023/04/09 02:00:18;;;;;;;1.50;1.40;;;9.60;99.90;;;;;;5015526;28;20052;-64
2023/04/09 02:03:29;;;;;;;1.75;1.65;;;9.60;99.90;;;;;;5015108;28;20568;-64
2023/04/09 02:06:12;;;;;;;1.38;1.27;;;9.60;99.90;;;;;;5018639;28;20045;-64
2023/04/09 02:08:38;;;;;;;2.10;1.85;;;9.60;99.90;;;;;;5015890;28;20125;-64
2023/04/09 02:11:08;;;;;;;8.40;2.70;;;9.60;99.90;;;;;;5021041;28;20060;-64
2023/04/09 02:13:36;;;;;;;8.02;2.92;;;9.60;99.90;;;;;;5012064;28;20046;-64
2023/04/09 02:16:03;;;;;;;2.08;1.75;;;9.60;99.90;;;;;;5014786;28;20501;-64
2023/04/09 02:18:29;;;;;;;1.77;1.67;;;9.60;99.90;;;;;;5012641;28;20489;-64
2023/04/09 02:20:56;;;;;;;1.25;1.15;;;9.60;99.90;;;;;;5011050;28;20041;-64
2023/04/09 02:23:22;;;;;;;2.85;2.55;;;9.60;99.90;;;;;;5012898;28;20041;-64
2023/04/09 02:25:48;;;;;;;2.00;1.90;;;9.60;99.90;;;;;;5025923;28;20211;-64
2023/04/09 02:28:14;;;;;;;2.75;0.95;;;9.60;99.90;;;;;;5013036;28;20050;-64
2023/04/09 02:30:40;;;;;;;1.42;1.33;;;9.50;99.90;;;;;;5018470;28;20238;-64
2023/04/09 02:33:05;;;;;;;3.22;2.22;;;9.60;99.90;;;;;;5013171;28;20061;-64
2023/04/09 02:35:32;;;;;;;0.70;0.70;;;9.50;99.90;;;;;;5011676;28;20100;-64
2023/04/09 02:37:57;;;;;;;1.35;1.05;;;9.50;99.90;;;;;;5012411;28;20116;-64
2023/04/09 02:40:23;;;;;;;2.38;1.13;;;9.50;99.90;;;;;;5019813;28;20512;-64
2023/04/09 02:42:49;;;;;;;1.88;1.77;;;9.50;99.90;;;;;;5016104;28;20045;-64
2023/04/09 02:45:14;;;;;;;0.55;0.55;;;9.50;99.90;;;;;;5013905;28;20053;-64
2023/04/09 02:47:40;;;;;;;3.78;3.22;;;9.50;99.90;;;;;;5013217;28;20062;-64
2023/04/09 02:50:06;;;;;;;0.60;0.60;;;9.50;99.90;;;;;;5018525;28;20496;-64
2023/04/09 02:52:32;;;;;;;2.08;1.48;;;9.50;99.90;;;;;;5012450;28;20049;-64
2023/04/09 02:54:57;;;;;;;1.00;0.95;;;9.50;99.90;;;;;;5017978;28;20064;-64
2023/04/09 02:57:23;;;;;;;1.92;1.83;;;9.50;99.90;;;;;;5009926;28;20125;-64
2023/04/09 02:59:48;;;;;;;1.10;1.10;;;9.40;99.90;;;;;;5013954;28;20048;-64
2023/04/09 03:02:14;;;;;;;3.17;2.85;;;9.40;99.90;;;;;;5012236;28;20080;-64
2023/04/09 03:04:39;;;;;;;1.52;1.42;;;9.40;99.90;;;;;;5017077;28;20477;-64
2023/04/09 03:07:05;;;;;;;9.82;3.75;;;9.40;99.90;;;;;;5024710;28;20049;-64
2023/04/09 03:09:31;;;;;;;1.52;1.45;;;9.40;99.90;;;;;;5011284;28;20046;-64
2023/04/09 03:11:56;;;;;;;3.08;2.80;;;9.40;99.90;;;;;;5019735;28;20042;-64
2023/04/09 03:14:25;;;;;;;4.82;1.80;;;9.30;99.90;;;;;;5013207;28;20042;-64
2023/04/09 03:16:50;;;;;;;1.50;1.48;;;9.30;99.90;;;;;;5017242;28;20046;-64
2023/04/09 03:19:16;;;;;;;12.45;3.55;;;9.30;99.90;;;;;;5018432;28;20224;-64
2023/04/09 03:21:42;;;;;;;2.42;2.30;;;9.30;99.90;;;;;;5011765;28;20078;-64
2023/04/09 03:24:07;;;;;;;1.20;1.17;;;9.30;99.90;;;;;;5013834;28;20057;-64
2023/04/09 03:26:36;;;;;;;2.40;2.30;;;9.30;99.90;;;;;;5030241;28;20648;-64
2023/04/09 03:29:03;;;;;;;3.08;2.72;;;9.30;99.90;;;;;;5014788;28;20084;-64
2023/04/09 03:31:28;;;;;;;2.10;1.20;;;9.30;99.90;;;;;;5016665;28;20125;-64
2023/04/09 03:33:54;;;;;;;1.70;1.65;;;9.30;99.90;;;;;;5016037;28;20120;-64
2023/04/09 03:36:19;;;;;;;5.40;2.45;;;9.20;99.90;;;;;;5025328;28;20041;-64
2023/04/09 03:38:45;;;;;;;6.90;1.75;;;9.20;99.90;;;;;;5015031;28;20405;-64
2023/04/09 03:41:10;;;;;;;1.92;1.75;;;9.10;99.90;;;;;;5020602;28;20057;-64
2023/04/09 03:43:36;;;;;;;3.10;2.63;;;9.10;99.90;;;;;;5027256;28;20442;-64
2023/04/09 03:46:11;;;;;;;1.35;1.35;;;9.10;99.90;;;;;;5013110;28;20050;-64
2023/04/09 03:48:36;;;;;;;0.68;0.68;;;9.10;99.90;;;;;;5014599;28;20050;-64
2023/04/09 03:51:02;;;;;;;8.60;4.80;;;9.10;99.90;;;;;;5021934;28;20455;-64
2023/04/09 03:53:27;;;;;;;0.95;0.95;;;9.10;99.90;;;;;;5014790;28;20049;-64
2023/04/09 03:55:53;;;;;;;2.80;2.63;;;9.10;99.90;;;;;;5013974;28;20501;-64
2023/04/09 03:58:19;;;;;;;2.17;2.08;;;9.10;99.90;;;;;;5013748;28;20406;-64
2023/04/09 04:00:44;;;;;;;1.67;1.58;;;9.00;99.90;;;;;;5012065;28;20481;-64
2023/04/09 04:03:11;;;;;;;2.60;2.40;;;9.00;99.90;;;;;;5011527;28;20077;-64
2023/04/09 04:05:36;;;;;;;8.40;2.95;;;9.00;99.90;;;;;;5012513;28;20046;-64
2023/04/09 04:08:02;;;;;;;1.65;1.42;;;9.00;99.90;;;;;;5011596;28;20053;-64
2023/04/09 04:10:27;;;;;;;1.50;1.30;;;9.00;99.90;;;;;;5015647;28;20381;-64
2023/04/09 04:12:53;;;;;;;1.98;1.88;;;9.00;99.90;;;;;;5017245;28;20156;-64
2023/04/09 04:15:19;;;;;;;0.40;0.40;;;9.00;99.90;;;;;;5014634;28;20038;-64
2023/04/09 04:17:45;;;;;;;3.08;2.78;;;9.00;99.90;;;;;;5012996;28;20497;-64
2023/04/09 04:20:10;;;;;;;1.48;1.20;;;9.00;99.90;;;;;;5024715;28;20044;-64
2023/04/09 04:22:36;;;;;;;2.70;2.50;;;9.00;99.90;;;;;;5016442;28;20054;-64
2023/04/09 04:25:03;;;;;;;0.98;0.98;;;9.00;99.90;;;;;;5010804;28;20037;-64
2023/04/09 04:27:29;;;;;;;3.95;3.65;;;9.00;99.90;;;;;;5016379;28;20072;-64
2023/04/09 04:29:57;;;;;;;1.70;1.60;;;9.00;99.90;;;;;;5018353;28;20529;-64
2023/04/09 04:32:23;;;;;;;1.90;1.80;;;9.00;99.90;;;;;;5019195;28;20048;-64
2023/04/09 04:34:49;;;;;;;2.40;2.13;;;9.00;99.90;;;;;;5020223;28;20037;-64
2023/04/09 04:37:15;;;;;;;2.85;2.50;;;9.00;99.90;;;;;;5021453;28;20049;-64
2023/04/09 04:39:40;;;;;;;2.00;1.85;;;9.00;99.90;;;;;;5015488;28;20738;-64
2023/04/09 04:42:06;;;;;;;0.90;0.90;;;9.00;99.90;;;;;;5013103;28;20053;-64
2023/04/09 04:44:31;;;;;;;3.40;2.92;;;9.00;99.90;;;;;;5017752;28;20041;-64
2023/04/09 04:46:57;;;;;;;1.58;1.48;;;9.00;99.90;;;;;;5024081;28;20053;-64
2023/04/09 04:49:22;;;;;;;0.82;0.82;;;9.00;99.90;;;;;;5019036;28;20524;-64
2023/04/09 04:51:48;;;;;;;2.92;2.50;;;9.00;99.90;;;;;;5012687;28;20493;-64
2023/04/09 04:54:14;;;;;;;1.55;1.25;;;9.00;99.90;;;;;;5009721;28;20046;-64
2023/04/09 04:56:39;;;;;;;2.00;1.90;;;9.00;99.90;;;;;;5010337;28;20080;-64
2023/04/09 04:59:05;;;;;;;2.20;2.10;;;9.00;99.90;;;;;;5016256;28;20471;-64
2023/04/09 05:01:30;;;;;;;3.88;2.60;;;8.90;99.90;;;;;;5010061;28;20049;-64
2023/04/09 05:03:56;;;;;;;3.92;2.38;;;8.90;99.90;;;;;;5010355;28;20096;-63
2023/04/09 05:06:22;;;;;;;0.98;0.98;;;8.90;99.90;;;;;;5015282;28;20490;-64
2023/04/09 05:08:47;;;;;;;0.77;0.70;;;8.90;99.90;;;;;;5009107;28;20049;-64
2023/04/09 05:11:15;;;;;;;2.10;2.00;;;8.90;99.90;;;;;;5010091;28;20544;-64
2023/04/09 05:13:41;;;;;;;0.30;0.30;;;8.90;99.90;;;;;;5016094;28;20053;-64
2023/04/09 05:16:07;;;;;;;1.00;1.00;;;8.90;99.90;;;;;;5010270;28;20103;-64
2023/04/09 05:18:32;;;;;;;5.20;3.15;;;8.90;99.90;;;;;;5016130;28;20037;-64
2023/04/09 05:20:58;;;;;;;3.67;1.73;;;8.90;99.90;;;;;;5009476;28;20095;-64
2023/04/09 05:23:23;;;;;;;1.17;1.00;;;8.90;99.90;;;;;;5016221;28;20041;-64
2023/04/09 05:25:49;;;;;;;1.48;1.38;;;8.90;99.90;;;;;;5024592;28;20049;-64
2023/04/09 05:28:15;;;;;;;0.70;0.60;;;8.90;99.90;;;;;;5014143;28;20046;-64
2023/04/09 05:30:45;;;;;;;9.30;3.92;;;8.90;99.90;;;;;;5013115;28;20061;-64
2023/04/09 05:33:11;;;;;;;1.70;1.60;;;8.90;99.90;;;;;;5018142;28;20065;-64
2023/04/09 05:35:40;;;;;;;1.67;1.58;;;8.80;99.90;;;;;;5014068;28;20033;-64
2023/04/09 05:38:05;;;;;;;0.30;0.30;;;8.90;99.90;;;;;;5016646;28;20049;-64
2023/04/09 05:40:31;;;;;;;2.38;1.38;;;8.90;99.90;;;;;;5012359;28;20034;-63
2023/04/09 05:42:56;;;;;;;0.47;0.47;;;8.80;99.90;;;;;;5022698;28;20034;-64
2023/04/09 05:45:22;;;;;;;3.05;1.80;;;8.90;99.90;;;;;;5015869;28;20042;-64
2023/04/09 05:47:48;;;;;;;0.40;0.40;;;8.90;99.90;;;;;;5014837;28;20045;-64
2023/04/09 05:50:13;;;;;;;2.03;1.17;;;8.90;99.90;;;;;;5021977;28;20472;-64
2023/04/09 05:52:39;;;;;;;1.48;1.02;;;8.90;99.90;;;;;;5018555;28;20054;-64
2023/04/09 05:55:05;;;;;;;0.75;0.75;;;9.00;99.90;;;;;;5028889;28;20124;-64
2023/04/09 05:57:31;;;;;;;27.02;3.38;;;9.00;99.90;;;;;;5020738;28;20132;-64
2023/04/09 05:59:57;;;;;;;0.73;0.65;;;9.00;99.90;;;;;;5025489;28;20121;-64
2023/04/09 06:02:23;;;;;;;2.78;2.58;;;9.00;99.90;;;;;;5017300;28;20064;-64
2023/04/09 06:04:49;;;;;;;1.23;1.13;;;9.00;99.90;;;;;;5023661;28;20558;-63
2023/04/09 06:07:15;;;;;;;1.58;1.23;;;9.00;99.90;;;;;;5013603;28;20053;-64
2023/04/09 06:09:43;;;;;;;1.48;1.25;;;9.00;99.90;;;;;;5012898;28;20074;-64
2023/04/09 06:12:09;;;;;;;2.78;1.35;;;9.00;99.90;;;;;;5024552;28;20148;-64
2023/04/09 06:14:34;;;;;;;5.40;1.98;;;9.00;99.90;;;;;;5019326;28;20053;-64
2023/04/09 06:17:00;;;;;;;1.55;1.45;;;9.00;99.90;;;;;;5013004;28;20108;-64
2023/04/09 06:19:26;;;;;;;11.43;2.58;;;9.00;99.90;;;;;;5011991;28;20050;-64
2023/04/09 06:21:51;;;;;;;2.05;1.95;;;9.00;99.90;;;;;;5016778;28;20841;-64
2023/04/09 06:24:17;;;;;;;1.30;1.20;;;9.00;99.90;;;;;;5018842;28;20034;-64
2023/04/09 06:26:42;;;;;;;0.20;0.20;;;9.00;99.90;;;;;;5011774;28;20046;-64
2023/04/09 06:29:08;;;;;;;1.00;1.00;;;9.00;99.90;;;;;;5013557;28;20049;-64
2023/04/09 06:31:33;;;;;;;2.63;1.88;;;9.00;99.90;;;;;;5022064;28;20819;-64
2023/04/09 06:33:59;;;;;;;1.45;1.10;;;9.10;99.90;;;;;;5025276;28;20037;-64
2023/04/09 06:36:26;;;;;;;2.40;2.10;;;9.10;99.90;;;;;;5011597;28;20068;-64
2023/04/09 06:38:52;;;;;;;5.47;1.17;;;9.10;99.90;;;;;;5019521;28;20056;-64
2023/04/09 06:41:20;;;;;;;1.42;1.40;;;9.10;99.90;;;;;;5019352;28;20042;-64
2023/04/09 06:43:45;;;;;;;0.88;0.82;;;9.20;99.90;;;;;;5012585;28;20070;-64
2023/04/09 06:46:13;;;;;;;3.15;1.60;;;9.10;99.90;;;;;;5014495;28;20081;-63
2023/04/09 06:48:38;;;;;;;2.03;1.77;;;9.20;99.90;;;;;;5011637;28;20030;-64
2023/04/09 06:51:06;;;;;;;1.58;1.48;;;9.20;99.90;;;;;;5023599;28;20138;-64
2023/04/09 06:53:31;;;;;;;2.55;2.35;;;9.20;99.90;;;;;;5012266;28;20050;-64
2023/04/09 06:55:57;;;;;;;0.88;0.88;;;9.10;99.90;;;;;;5010857;28;20111;-63
2023/04/09 06:58:23;;;;;;;1.98;1.88;;;9.20;99.90;;;;;;5019431;28;20488;-64
2023/04/09 07:00:48;;;;;;;1.80;1.65;;;9.20;99.90;;;;;;5013953;28;20433;-64
2023/04/09 07:03:14;;;;;;;4.68;1.95;;;9.20;99.90;;;;;;5014035;28;20049;-64
2023/04/09 07:05:40;;;;;;;1.30;1.20;;;9.20;99.90;;;;;;5012486;28;20038;-64
2023/04/09 07:08:06;;;;;;;1.58;1.48;;;9.20;99.90;;;;;;5017108;28;20065;-64
2023/04/09 07:10:31;;;;;;;0.95;0.95;;;9.20;99.90;;;;;;5015199;28;20046;-64
2023/04/09 07:12:57;;;;;;;5.90;1.58;;;9.20;99.90;;;;;;5015604;28;20046;-63
2023/04/09 07:15:22;;;;;;;1.15;1.15;;;9.30;99.90;;;;;;5022323;28;20041;-64
2023/04/09 07:17:48;;;;;;;0.52;0.52;;;9.20;99.90;;;;;;5029489;28;20037;-64
2023/04/09 07:20:14;;;;;;;0.20;0.20;;;9.30;99.90;;;;;;5024317;28;20627;-64
2023/04/09 07:22:40;;;;;;;0.10;0.10;;;9.20;99.90;;;;;;5012325;28;20042;-64
2023/04/09 07:25:06;;;;;;;1.15;1.15;;;9.20;99.90;;;;;;5017691;28;20127;-64
2023/04/09 07:27:32;;;;;;;5.30;1.55;;;9.30;99.90;;;;;;5023826;28;20063;-64
2023/04/09 07:29:58;;;;;;;0.55;0.55;;;9.30;99.90;;;;;;5009428;28;20502;-64
2023/04/09 07:32:25;;;;;;;1.02;0.88;;;9.30;99.90;;;;;;5011450;28;20769;-64
2023/04/09 07:34:52;;;;;;;0.20;0.20;;;9.30;99.90;;;;;;5011015;28;20058;-63
2023/04/09 07:37:17;;;;;;;1.00;0.82;;;9.30;99.90;;;;;;5019333;28;20491;-64
2023/04/09 07:39:43;;;;;;;1.33;1.25;;;9.30;99.90;;;;;;5011262;28;20113;-63
2023/04/09 07:42:09;;;;;;;3.85;1.65;;;9.20;99.90;;;;;;5013747;28;20049;-64
2023/04/09 07:44:35;;;;;;;4.47;1.75;;;9.20;99.90;;;;;;5024905;28;20141;-63
2023/04/09 07:47:02;;;;;;;2.50;2.15;;;9.30;99.90;;;;;;5013023;28;20053;-63
2023/04/09 07:49:28;;;;;;;0.90;0.90;;;9.30;99.90;;;;;;5016626;28;20116;-63
2023/04/09 07:51:53;;;;;;;0.65;0.65;;;9.30;99.90;;;;;;5012819;28;20130;-63
2023/04/09 07:54:20;;;;;;;2.22;1.05;;;9.30;99.90;;;;;;5010136;28;20054;-63
2023/04/09 07:56:46;;;;;;;2.28;1.48;;;9.30;99.90;;;;;;5016706;28;20484;-63
2023/04/09 07:59:12;;;;;;;1.98;1.85;;;9.30;99.90;;;;;;5015239;28;20061;-64
2023/04/09 08:01:38;;;;;;;0.47;0.47;;;9.30;99.90;;;;;;5012466;28;20046;-64
2023/04/09 08:04:03;;;;;;;1.95;1.83;;;9.30;99.90;;;;;;5026037;28;20041;-64
2023/04/09 08:06:29;;;;;;;2.40;1.42;;;9.30;99.90;;;;;;5016549;28;20049;-64
2023/04/09 08:08:55;;;;;;;1.50;1.40;;;9.30;99.90;;;;;;5010310;28;20041;-64
2023/04/09 08:11:24;;;;;;;1.17;1.08;;;9.30;99.90;;;;;;5021745;28;20389;-64
2023/04/09 08:13:53;;;;;;;1.92;1.80;;;9.30;99.90;;;;;;5017492;28;20037;-65
2023/04/09 08:16:20;;;;;;;1.40;1.35;;;9.30;99.90;;;;;;5015519;28;20029;-65
2023/04/09 08:18:46;;;;;;;2.42;1.73;;;9.30;99.90;;;;;;5021627;28;20049;-68
2023/04/09 08:21:12;;;;;;;1.75;1.65;;;9.30;99.90;;;;;;5023959;28;20049;-65
2023/04/09 08:23:37;;;;;;;0.55;0.55;;;9.20;99.90;;;;;;5021340;28;20049;-65
2023/04/09 08:26:03;;;;;;;2.63;1.23;;;9.30;99.90;;;;;;5020292;28;20041;-65
2023/04/09 08:28:29;;;;;;;1.35;0.98;;;9.30;99.90;;;;;;5020051;28;20041;-65
2023/04/09 08:30:54;;;;;;;3.10;2.58;;;9.30;99.90;;;;;;5020409;28;20065;-65
2023/04/09 08:33:20;;;;;;;0.63;0.63;;;9.30;99.90;;;;;;5030895;28;20388;-65
2023/04/09 08:35:45;;;;;;;4.88;3.53;;;9.30;99.90;;;;;;5018691;28;20046;-65
2023/04/09 08:38:11;;;;;;;1.73;1.63;;;9.30;99.90;;;;;;5035435;28;20040;-65
2023/04/09 08:40:37;;;;;;;4.25;3.70;;;9.30;99.90;;;;;;5025044;28;20787;-65
2023/04/09 08:43:06;;;;;;;0.73;0.73;;;9.30;99.90;;;;;;5026886;28;20044;-65
2023/04/09 08:45:32;;;;;;;2.85;2.20;;;9.30;99.90;;;;;;5019145;28;20091;-65
2023/04/09 08:48:02;;;;;;;0.45;0.45;;;9.30;99.90;;;;;;5017950;28;20034;-65
2023/04/09 08:50:29;;;;;;;3.15;2.65;;;9.30;99.90;;;;;;5013388;28;20058;-65
2023/04/09 08:52:57;;;;;;;0.57;0.57;;;9.30;99.90;;;;;;5010705;28;20085;-65
2023/04/09 08:55:22;;;;;;;3.67;2.13;;;9.30;99.90;;;;;;5016557;28;20042;-65
2023/04/09 08:57:48;;;;;;;2.83;2.22;;;9.40;99.90;;;;;;5013687;28;20444;-65
2023/04/09 09:00:14;;;;;;;3.30;2.08;;;9.30;99.90;;;;;;5011953;28;20486;-65
2023/04/09 09:03:00;;;;;;;0.57;0.57;;;9.40;99.90;;;;;;5021155;28;20603;-65
2023/04/09 09:05:39;;;;;;;0.55;0.55;;;9.40;99.90;;;;;;5026182;28;20045;-65
2023/04/09 09:08:10;;;;;;;1.15;0.73;;;9.40;99.90;;;;;;5016946;28;20841;-65
2023/04/09 09:10:44;;;;;;;1.85;1.13;;;9.40;99.90;;;;;;5015065;28;20049;-65
2023/04/09 09:13:22;;;;;;;1.40;1.33;;;9.50;99.90;;;;;;5024516;28;20049;-65
2023/04/09 09:15:54;;;;;;;1.02;1.02;;;9.40;99.90;;;;;;5023280;28;20045;-65
2023/04/09 09:18:21;;;;;;;3.85;1.55;;;9.50;99.90;;;;;;5010360;28;20049;-65
2023/04/09 09:20:46;;;;;;;1.90;1.80;;;9.50;99.90;;;;;;5018573;28;20045;-65
2023/04/09 09:23:12;;;;;;;1.30;1.30;;;9.50;99.90;;;;;;5014658;28;20662;-65
2023/04/09 09:25:42;;;;;;;2.33;2.13;;;9.50;99.90;;;;;;5020310;28;20120;-65
2023/04/09 09:28:11;;;;;;;1.15;1.13;;;9.50;99.90;;;;;;5024228;28;20481;-65
2023/04/09 09:30:39;;;;;;;2.95;2.75;;;9.50;99.90;;;;;;5008863;28;20132;-65
2023/04/09 09:33:05;;;;;;;0.90;0.90;;;9.60;99.90;;;;;;5020949;28;20448;-65
2023/04/09 09:35:49;;;;;;;0.98;0.65;;;9.60;99.90;;;;;;5019352;28;20041;-65
2023/04/09 09:38:15;;;;;;;0.63;0.63;;;9.60;99.90;;;;;;5025501;28;20079;-65
2023/04/09 09:40:41;;;;;;;3.38;2.75;;;9.60;99.90;;;;;;5015129;28;20100;-65
2023/04/09 09:43:07;;;;;;;1.15;1.05;;;9.60;99.90;;;;;;5016074;28;20038;-65
2023/04/09 09:45:33;;;;;;;1.95;1.85;;;9.70;99.90;;;;;;5013559;28;20046;-65
2023/04/09 09:47:59;;;;;;;0.50;0.50;;;9.70;99.90;;;;;;5011977;28;20046;-64
2023/04/09 09:50:27;;;;;;;1.33;1.23;;;9.70;99.90;;;;;;5015085;28;20061;-65
2023/04/09 09:53:04;;;;;;;3.72;1.77;;;9.70;99.90;;;;;;5016068;28;20052;-65
2023/04/09 09:55:32;;;;;;;4.47;1.63;;;9.70;99.90;;;;;;5014711;28;20041;-65
2023/04/09 09:58:01;;;;;;;0.95;0.95;;;9.70;99.90;;;;;;5026407;28;20052;-64
2023/04/09 10:00:30;;;;;;;2.88;1.73;;;9.70;99.90;;;;;;5027387;28;20045;-64
2023/04/09 10:03:03;;;;;;;6.57;1.98;;;9.80;99.90;;;;;;5013336;28;20053;-63
2023/04/09 10:05:29;;;;;;;2.20;2.00;;;9.70;99.90;;;;;;5008553;28;20080;-63
2023/04/09 10:07:57;;;;;;;2.92;2.72;;;9.90;99.90;;;;;;5014948;28;20089;-63
2023/04/09 10:10:24;;;;;;;2.45;2.33;;;9.90;99.90;;;;;;5017321;28;20050;-64
2023/04/09 10:12:51;;;;;;;1.40;1.30;;;9.90;99.90;;;;;;5016162;28;20045;-64
2023/04/09 10:15:18;;;;;;;0.55;0.55;;;9.90;99.90;;;;;;5017754;28;20777;-62
2023/04/09 10:17:44;;;;;;;1.27;1.20;;;9.90;99.90;;;;;;5015292;28;20511;-63
2023/04/09 10:20:15;;;;;;;0.73;0.73;;;10.00;99.90;;;;;;5018220;28;20132;-64
2023/04/09 10:22:44;;;;;;;1.27;1.17;;;10.00;99.90;;;;;;5016817;28;20120;-65
2023/04/09 10:25:10;;;;;;;1.98;1.70;;;9.90;99.90;;;;;;5020723;28;20085;-64
2023/04/09 10:27:35;;;;;;;2.97;1.90;;;10.00;99.90;;;;;;5014178;28;20132;-63
2023/04/09 10:30:01;;;;;;;0.57;0.57;;;10.10;99.90;;;;;;5019107;28;20045;-62
2023/04/09 10:32:34;;;;;;;0.57;0.57;;;10.10;99.90;;;;;;5015431;28;20084;-62
2023/04/09 10:35:02;;;;;;;1.58;1.52;;;10.10;99.90;;;;;;5016397;28;20054;-65
2023/04/09 10:37:28;;;;;;;2.72;1.65;;;10.20;99.90;;;;;;5025954;28;20042;-65
2023/04/09 10:39:55;;;;;;;3.65;2.15;;;10.20;99.90;;;;;;5016724;28;20049;-64
2023/04/09 10:42:30;;;;;;;2.42;1.60;;;10.30;99.90;;;;;;5016817;28;20042;-64
2023/04/09 10:45:07;;;;;;;1.70;1.55;;;10.20;99.90;;;;;;5019955;28;20049;-64
2023/04/09 10:47:35;;;;;;;1.20;1.10;;;10.30;99.90;;;;;;5016219;28;20038;-64
2023/04/09 10:50:21;;;;;;;6.05;1.38;;;10.30;99.90;;;;;;5017564;28;20065;-64
2023/04/09 10:52:51;;;;;;;2.00;1.50;;;10.40;99.90;;;;;;5019026;28;20053;-65
2023/04/09 10:55:30;;;;;;;0.40;0.40;;;10.40;99.90;;;;;;5023261;28;20085;-65
2023/04/09 10:57:56;;;;;;;1.17;1.10;;;10.40;99.90;;;;;;5012879;28;20053;-65
2023/04/09 11:00:22;;;;;;;0.98;0.93;;;10.40;99.90;;;;;;5020107;28;20038;-64
2023/04/09 11:03:19;;;;;;;0.98;0.90;;;10.50;99.90;;;;;;5022290;28;20056;-64
2023/04/09 11:05:51;;;;;;;1.05;0.95;;;10.60;99.90;;;;;;5016809;28;20049;-64
2023/04/09 11:08:17;;;;;;;1.92;1.83;;;10.60;99.90;;;;;;5020441;28;20045;-64
2023/04/09 11:10:45;;;;;;;3.10;2.53;;;10.60;99.90;;;;;;5020878;28;20090;-64
2023/04/09 11:13:12;;;;;;;2.60;1.77;;;10.70;99.90;;;;;;5013691;28;20209;-64
2023/04/09 11:15:38;;;;;;;4.65;2.38;;;10.80;99.90;;;;;;5017767;28;20094;-64
2023/04/09 11:18:05;;;;;;;6.72;1.60;;;10.80;99.90;;;;;;5052614;28;21242;-64
2023/04/09 11:20:33;;;;;;;1.08;1.08;;;11.00;99.90;;;;;;5011333;28;20129;-64
2023/04/09 11:22:59;;;;;;;4.18;2.53;;;11.20;99.90;;;;;;5016327;28;20168;-64
2023/04/09 11:25:32;;;;;;;2.00;1.85;;;11.40;99.90;;;;;;5016013;28;20088;-64
2023/04/09 11:28:01;;;;;;;2.72;1.48;;;11.70;99.90;;;;;;5011724;28;20037;-64
2023/04/09 11:30:27;;;;;;;1.38;1.35;;;12.20;99.90;;;;;;5020864;28;20505;-64
2023/04/09 11:32:53;;;;;;;6.28;1.20;;;12.70;99.90;;;;;;5020796;28;20168;-64
2023/04/09 11:35:20;;;;;;;0.95;0.95;;;12.80;99.90;;;;;;5013958;28;20441;-64
2023/04/09 11:37:47;;;;;;;2.50;2.28;;;13.00;99.90;;;;;;5012602;28;20037;-64
2023/04/09 11:40:25;;;;;;;2.17;2.03;;;13.00;99.90;;;;;;5019350;28;20045;-64
2023/04/09 11:42:53;;;;;;;1.38;1.27;;;13.10;99.90;;;;;;5024386;28;20045;-64
2023/04/09 11:45:24;;;;;;;1.13;1.08;;;13.30;99.90;;;;;;5013270;28;20141;-65
2023/04/09 11:47:50;;;;;;;0.75;0.75;;;13.10;99.90;;;;;;5023182;28;20158;-65
2023/04/09 11:50:18;;;;;;;7.13;1.88;;;12.80;99.90;;;;;;5017085;28;20056;-65
2023/04/09 11:52:47;;;;;;;1.38;1.30;;;13.10;99.90;;;;;;5014755;28;20092;-64
2023/04/09 11:55:26;;;;;;;6.78;1.70;;;13.10;99.90;;;;;;5022412;28;20046;-65
2023/04/09 11:58:00;;;;;;;2.05;1.95;;;13.40;99.90;;;;;;5014075;28;20443;-65
2023/04/09 12:00:26;;;;;;;2.10;0.68;;;13.70;99.90;;;;;;5013770;28;20051;-65
2023/04/09 12:03:02;;;;;;;1.30;1.25;;;14.10;99.90;;;;;;5012124;28;20188;-65
2023/04/09 12:05:30;;;;;;;2.70;1.80;;;14.50;99.90;;;;;;5020942;28;20049;-64
2023/04/09 12:08:03;;;;;;;1.52;1.42;;;14.90;99.90;;;;;;5016484;28;20177;-65
2023/04/09 12:10:32;;;;;;;0.60;0.60;;;14.80;99.90;;;;;;5014982;28;20124;-65
2023/04/09 12:13:16;;;;;;;1.08;1.08;;;14.50;99.90;;;;;;5010305;28;20054;-65
2023/04/09 12:15:44;;;;;;;4.75;2.35;;;14.70;99.90;;;;;;5019135;28;20049;-65
2023/04/09 12:18:12;;;;;;;3.47;2.30;;;15.20;99.90;;;;;;5012908;28;20041;-65
2023/04/09 12:20:40;;;;;;;4.30;2.42;;;15.20;99.90;;;;;;5025814;28;20056;-65
2023/04/09 12:23:06;;;;;;;0.85;0.85;;;15.00;99.90;;;;;;5015034;28;20121;-65
2023/04/09 12:25:37;;;;;;;0.47;0.47;;;14.70;99.90;;;;;;5011311;28;20045;-65
2023/04/09 12:28:04;;;;;;;2.05;1.95;;;15.20;99.90;;;;;;5013237;28;20061;-64
2023/04/09 12:30:31;;;;;;;0.55;0.55;;;15.40;99.90;;;;;;5014603;28;20064;-62
2023/04/09 12:32:57;;;;;;;1.92;1.83;;;15.90;99.90;;;;;;5015040;28;20497;-64
2023/04/09 12:35:23;;;;;;;1.00;1.00;;;16.10;99.90;;;;;;5023520;28;20038;-65
2023/04/09 12:37:49;;;;;;;4.80;1.95;;;16.40;99.90;;;;;;5016634;28;20048;-65
2023/04/09 12:40:15;;;;;;;3.53;2.10;;;16.40;99.90;;;;;;5015069;28;20515;-65
2023/04/09 12:42:42;;;;;;;3.30;1.35;;;16.50;99.90;;;;;;5015012;28;20033;-66
2023/04/09 12:45:10;;;;;;;1.08;0.95;;;16.60;99.90;;;;;;5016602;28;20073;-65
2023/04/09 12:47:36;;;;;;;1.65;1.55;;;16.30;99.90;;;;;;5016501;28;20061;-66
2023/04/09 12:50:03;;;;;;;1.15;1.02;;;16.50;99.90;;;;;;5019703;28;20037;-65
2023/04/09 12:52:29;;;;;;;1.17;1.17;;;16.60;99.90;;;;;;5019223;28;20096;-65
2023/04/09 12:54:55;;;;;;;0.20;0.20;;;16.70;99.90;;;;;;5015891;28;20045;-65
2023/04/09 12:57:20;;;;;;;1.67;1.58;;;16.40;99.90;;;;;;5011231;28;20057;-65